Airfield :
LOGIN :

Register | Disclaimer

   EN    FR    IT 

 










Legend :    VFR   Marginal VFR   IFR   Intensive IFR   Very Intensive IFR
Visi :
Ceiling :
>= 8 km
>= 3000ft
5 to 8 km
1000 to 3000 ft
1500m to 5 km
500 to 1000 ft
800 to 1500m
200 to 500 ft
< 800m
< 200 ft
Symbols :   Thunderstorms  Fog  Heavy snow  Heavy precipitations  Wind > 20 kt
SIGMETs :     Misc.  Thunderstorms  Icing  Turbulence  Mountain Waves  Volcanic Ashes






- Airport Elevation : 72 ft
- IATA code : UDE


EHVK - Volkel Airbase

CURRENT METAR :
  • 050055Z AUTO 09004KT 9999 NCD 04/M01 Q1023 BLU

EXPIRED METARs :
  • 050025Z AUTO 09004KT 9999 NCD 06/M01 Q1023 BLU
  • 042355Z AUTO 09005KT 9999 NCD 05/M01 Q1023 BLU
  • 042325Z AUTO 09005KT 9999 NCD 04/M01 Q1023 BLU
  • 042255Z AUTO 08005KT 9999 NCD 05/M01 Q1023 BLU
  • 042225Z AUTO 09004KT 9999 NCD 06/M01 Q1023 BLU

TAF TAF EHVK
Valid from the 05 at 01:00 until the 05 at 13:00 UTC


050041Z 0501/0513 09005KT CAVOK
BECMG 0508/0510 14011G21KT



MET'MAP, your aeronautical weather chart ! - Copyright ORBIFLY December 2007 - Disclaimer

ORBIFLY MET'MAP TEAM :

Programming & Development : Alexandra Zaïnal
Concept & original design : Baudouin d'Aumeries
Assistance for programming : Marc-Olivier Méhu
Technical & hardware support : Manuel Goepfert

Contact : metmap@orbifly.com




SOURCES & CREDITS :

   NOAA